createdAt,value
2018-02-06T00:02:20.422Z,13.50
2018-02-06T00:04:47.941Z,14.40
2018-02-06T00:07:15.501Z,14.40
2018-02-06T00:09:43.030Z,13.70
2018-02-06T00:12:10.554Z,14.48
2018-02-06T00:14:38.101Z,16.20
2018-02-06T00:17:05.618Z,13.73
2018-02-06T00:19:33.174Z,14.93
2018-02-06T00:22:00.853Z,14.23
2018-02-06T00:24:28.378Z,15.82
2018-02-06T00:26:55.900Z,14.10
2018-02-06T00:29:23.470Z,16.20
2018-02-06T00:31:50.989Z,15.35
2018-02-06T00:34:18.510Z,14.02
2018-02-06T00:36:46.049Z,13.00
2018-02-06T00:39:13.571Z,15.23
2018-02-06T00:41:41.169Z,15.07
2018-02-06T00:44:08.885Z,16.05
2018-02-06T00:46:36.393Z,15.63
2018-02-06T00:49:03.934Z,14.68
2018-02-06T00:51:31.477Z,14.98
2018-02-06T00:53:58.990Z,13.52
2018-02-06T00:56:26.509Z,15.75
2018-02-06T00:58:54.069Z,15.10
2018-02-06T01:01:21.598Z,16.17
2018-02-06T01:03:49.110Z,16.12
2018-02-06T01:06:17.008Z,17.42
2018-02-06T01:08:44.520Z,17.52
2018-02-06T01:11:12.041Z,18.33
2018-02-06T01:13:39.572Z,18.33
2018-02-06T01:16:07.097Z,16.10
2018-02-06T01:18:34.620Z,16.67
2018-02-06T01:21:02.161Z,13.82
2018-02-06T01:23:29.682Z,16.70
2018-02-06T01:25:57.233Z,15.45
2018-02-06T01:28:24.782Z,14.60
2018-02-06T01:30:52.311Z,14.68
2018-02-06T01:33:19.841Z,15.45
2018-02-06T01:35:47.394Z,16.27
2018-02-06T01:38:14.984Z,17.52
2018-02-06T01:40:42.516Z,19.55
2018-02-06T01:43:10.061Z,16.83
2018-02-06T01:45:37.585Z,19.90
2018-02-06T01:48:06.049Z,18.70
2018-02-06T01:50:33.581Z,16.00
2018-02-06T01:53:01.127Z,15.43
2018-02-06T01:55:28.650Z,15.60
2018-02-06T01:57:56.189Z,16.37
2018-02-06T02:00:23.714Z,15.13
2018-02-06T02:02:51.239Z,15.52
2018-02-06T02:05:18.777Z,17.17
2018-02-06T02:07:46.297Z,15.25
2018-02-06T02:10:13.813Z,16.50
2018-02-06T02:12:41.749Z,17.48
2018-02-06T02:15:09.268Z,15.60
2018-02-06T02:17:36.786Z,16.77
2018-02-06T02:20:04.334Z,18.00
2018-02-06T02:22:31.847Z,15.02
2018-02-06T02:24:59.453Z,18.27
2018-02-06T02:27:26.992Z,16.80
2018-02-06T02:29:54.497Z,17.10
2018-02-06T02:32:22.015Z,18.15
2018-02-06T02:34:49.562Z,16.02
2018-02-06T02:37:17.076Z,17.73
2018-02-06T02:39:44.593Z,16.60
2018-02-06T04:40:13.582Z,20.50
2018-02-06T04:42:41.093Z,18.42
2018-02-06T04:45:08.641Z,18.35
2018-02-06T04:47:36.167Z,21.40
2018-02-06T04:50:03.689Z,19.65
2018-02-06T04:52:31.235Z,21.35
2018-02-06T04:54:58.758Z,18.50
2018-02-06T04:57:26.266Z,18.05
2018-02-06T04:59:53.812Z,19.30
2018-02-06T05:02:21.800Z,19.90
2018-02-06T05:04:49.425Z,20.75
2018-02-06T05:07:17.327Z,20.30
2018-02-06T05:09:44.849Z,21.40
2018-02-06T05:12:12.401Z,27.27
2018-02-06T05:14:39.962Z,21.65
2018-02-06T05:17:07.482Z,20.65
2018-02-06T05:19:35.025Z,20.33
2018-02-06T05:22:02.541Z,19.92
2018-02-06T05:24:30.086Z,20.48
2018-02-06T05:26:57.638Z,19.73
2018-02-06T05:29:25.159Z,18.80
2018-02-06T05:31:52.701Z,21.05
2018-02-06T05:34:20.216Z,20.58
2018-02-06T05:36:47.758Z,20.98
2018-02-06T05:39:15.289Z,21.87
2018-02-06T05:41:42.821Z,20.62
2018-02-06T05:44:10.373Z,21.45
2018-02-06T05:46:37.894Z,21.52
2018-02-06T05:49:05.433Z,23.60
2018-02-06T05:51:32.973Z,22.62
2018-02-06T05:54:00.490Z,22.00
2018-02-06T05:56:28.037Z,21.08
2018-02-06T05:58:55.553Z,21.35
2018-02-06T06:01:23.090Z,21.08
2018-02-06T06:03:50.637Z,20.12
2018-02-06T06:06:18.157Z,20.60
2018-02-06T06:08:45.700Z,21.50
2018-02-06T06:11:13.232Z,22.02
2018-02-06T06:13:40.779Z,22.77
2018-02-06T06:16:08.330Z,20.70
2018-02-06T06:18:35.838Z,22.30
2018-02-06T06:21:03.390Z,22.40
2018-02-06T06:23:30.922Z,24.23
2018-02-06T06:25:58.465Z,20.60
2018-02-06T06:28:26.027Z,21.45
2018-02-06T06:30:53.541Z,23.80
2018-02-06T06:33:21.084Z,22.85
2018-02-06T06:35:48.601Z,22.23
2018-02-06T06:38:16.141Z,24.23
2018-02-06T06:40:43.997Z,20.98
2018-02-06T06:43:11.522Z,21.95
2018-02-06T06:45:39.071Z,23.10
2018-02-06T06:48:06.581Z,24.20
2018-02-06T06:50:34.293Z,22.05
2018-02-06T06:53:01.929Z,22.37
2018-02-06T06:55:29.448Z,23.73
2018-02-06T06:57:57.003Z,23.30
2018-02-06T07:00:24.542Z,24.23
2018-02-06T07:02:52.316Z,23.87
2018-02-06T07:05:19.847Z,25.40
2018-02-06T07:07:47.365Z,21.62
2018-02-06T07:10:14.918Z,22.33
2018-02-06T07:12:42.442Z,23.48
2018-02-06T07:15:10.288Z,22.02
2018-02-06T07:17:37.810Z,19.83
2018-02-06T07:20:05.330Z,22.80
2018-02-06T07:22:32.873Z,22.77
2018-02-06T07:25:00.389Z,21.75
2018-02-06T07:27:28.281Z,24.63
2018-02-06T07:29:55.795Z,22.02
2018-02-06T07:32:23.314Z,23.42
2018-02-06T07:34:50.849Z,21.62
2018-02-06T07:37:18.369Z,22.50
2018-02-06T07:39:46.077Z,21.58
2018-02-06T07:42:13.597Z,23.08
2018-02-06T07:44:41.118Z,23.38
2018-02-06T07:47:08.678Z,21.73
2018-02-06T07:49:36.646Z,24.85
2018-02-06T07:52:04.389Z,23.58
2018-02-06T07:54:31.910Z,24.40
2018-02-06T07:56:59.425Z,23.35
2018-02-06T07:59:26.977Z,20.62
2018-02-06T08:01:54.499Z,20.35
2018-02-06T08:04:22.190Z,23.52
2018-02-06T08:06:49.705Z,22.37
2018-02-06T08:09:17.214Z,20.50
2018-02-06T08:11:44.761Z,23.10
2018-02-06T08:14:12.299Z,21.87
2018-02-06T08:16:39.874Z,23.67
2018-02-06T08:19:07.395Z,27.10
2018-02-06T08:21:34.911Z,35.70
2018-02-06T08:24:02.462Z,45.35
2018-02-06T08:26:29.977Z,31.73
2018-02-06T08:28:57.774Z,26.85
2018-02-06T08:31:25.302Z,23.33
2018-02-06T08:33:52.822Z,22.30
2018-02-06T08:36:20.371Z,22.83
2018-02-06T08:38:47.893Z,23.50
2018-02-06T08:41:15.453Z,20.95
2018-02-06T08:43:42.971Z,24.40
2018-02-06T08:46:10.489Z,22.35
2018-02-06T08:48:38.038Z,21.45
2018-02-06T08:51:05.562Z,20.02
2018-02-06T08:53:33.273Z,23.92
2018-02-06T08:56:00.802Z,25.08
2018-02-06T08:58:28.326Z,21.70
2018-02-06T09:00:55.877Z,23.33
2018-02-06T09:03:23.410Z,24.70
2018-02-06T09:05:51.166Z,22.37
2018-02-06T09:08:18.681Z,22.08
2018-02-06T09:10:46.198Z,21.10
2018-02-06T09:13:13.746Z,72.12
2018-02-06T09:15:41.261Z,25.88
2018-02-06T09:18:08.961Z,23.67
2018-02-06T09:20:36.646Z,24.00
2018-02-06T09:23:04.174Z,22.95
2018-02-06T09:25:31.718Z,25.75
2018-02-06T09:27:59.239Z,23.95
2018-02-06T09:30:26.814Z,22.05
2018-02-06T09:32:54.334Z,20.73
2018-02-06T09:35:21.845Z,26.15
2018-02-06T09:37:49.389Z,23.17
2018-02-06T09:40:16.917Z,22.83
2018-02-06T09:42:44.677Z,22.05
2018-02-06T09:45:12.190Z,24.12
2018-02-06T09:47:39.710Z,22.80
2018-02-06T09:50:07.275Z,23.12
2018-02-06T09:52:34.793Z,21.73
2018-02-06T09:55:02.454Z,25.58
2018-02-06T09:57:29.974Z,25.25
2018-02-06T09:59:57.493Z,24.92
2018-02-06T10:02:25.037Z,22.95
2018-02-06T10:04:52.563Z,26.65
2018-02-06T10:07:20.246Z,26.48
2018-02-06T10:09:47.761Z,27.50
2018-02-06T10:12:15.278Z,28.02
2018-02-06T10:14:42.838Z,25.20
2018-02-06T10:17:10.371Z,27.65
2018-02-06T10:19:37.922Z,25.08
2018-02-06T10:22:05.441Z,25.90
2018-02-06T10:24:33.031Z,28.25
2018-02-06T10:27:00.572Z,28.05
2018-02-06T10:29:28.099Z,28.87
2018-02-06T10:31:55.846Z,27.20
2018-02-06T10:34:23.356Z,24.63
2018-02-06T10:36:50.878Z,24.83
2018-02-06T10:39:18.425Z,27.13
2018-02-06T10:41:45.942Z,26.77
2018-02-06T10:44:13.841Z,26.15
2018-02-06T10:46:41.358Z,28.35
2018-02-06T10:49:08.879Z,32.05
2018-02-06T10:51:36.449Z,29.25
2018-02-06T10:54:03.969Z,27.23
2018-02-06T10:56:31.606Z,27.62
2018-02-06T10:58:59.129Z,26.58
2018-02-06T11:01:26.645Z,24.35
2018-02-06T11:03:54.197Z,25.00
2018-02-06T11:06:21.718Z,26.67
2018-02-06T11:08:49.432Z,25.98
2018-02-06T11:11:16.955Z,26.80
2018-02-06T11:13:44.469Z,27.10
2018-02-06T11:16:12.022Z,27.33
2018-02-06T11:18:39.545Z,28.77
2018-02-06T11:21:07.235Z,28.27
2018-02-06T11:23:34.756Z,31.13
2018-02-06T11:26:02.277Z,28.03
2018-02-06T11:28:29.820Z,28.63
2018-02-06T11:30:57.384Z,30.30
2018-02-06T11:33:25.125Z,28.97
2018-02-06T11:35:52.650Z,32.10
2018-02-06T11:38:20.174Z,28.20
2018-02-06T11:40:47.722Z,29.30
2018-02-06T11:43:15.246Z,29.80
2018-02-06T11:45:43.030Z,32.00
2018-02-06T11:48:10.559Z,29.43
2018-02-06T11:50:38.086Z,31.80
2018-02-06T11:53:05.651Z,31.83
2018-02-06T11:55:33.173Z,31.40
2018-02-06T11:58:00.781Z,31.50
2018-02-06T12:00:28.298Z,31.77
2018-02-06T12:02:55.837Z,33.50
2018-02-06T12:05:23.386Z,30.73
2018-02-06T12:07:50.924Z,32.90
2018-02-06T12:10:18.479Z,30.53
2018-02-06T12:12:45.992Z,31.20
2018-02-06T12:15:13.958Z,30.27
2018-02-06T12:17:41.522Z,30.90
2018-02-06T12:20:09.050Z,37.00
2018-02-06T12:22:36.822Z,33.93
2018-02-06T12:25:04.346Z,39.60
2018-02-06T12:27:31.863Z,33.10
2018-02-06T12:29:59.422Z,34.90
2018-02-06T12:32:26.940Z,30.60
2018-02-06T12:34:54.522Z,32.87
2018-02-06T12:37:22.046Z,31.57
2018-02-06T12:39:50.577Z,31.80
2018-02-06T12:42:18.128Z,32.67
2018-02-06T12:44:45.649Z,31.17
2018-02-06T12:47:13.481Z,31.03
2018-02-06T12:49:41.089Z,33.97
2018-02-06T12:52:08.653Z,32.60
2018-02-06T12:54:36.210Z,29.80
2018-02-06T12:57:03.755Z,31.12
2018-02-06T13:01:59.049Z,29.40
2018-02-06T13:04:26.575Z,30.20
2018-02-06T13:06:54.129Z,30.17
2018-02-06T13:09:21.642Z,29.50
2018-02-06T13:11:49.433Z,30.25
2018-02-06T13:14:16.957Z,31.00
2018-02-06T13:16:44.497Z,29.23
2018-02-06T13:19:12.124Z,30.75
2018-02-06T13:21:39.655Z,32.60
2018-02-06T13:24:07.601Z,30.48
2018-02-06T13:26:35.119Z,29.90
2018-02-06T13:29:02.681Z,31.70
2018-02-06T13:31:30.242Z,27.70
2018-02-06T13:33:57.781Z,28.60
2018-02-06T13:36:25.347Z,24.95
2018-02-06T13:38:52.902Z,30.50
2018-02-06T13:41:20.421Z,28.80
2018-02-06T13:43:47.986Z,25.17
2018-02-06T13:46:15.498Z,31.40
2018-02-06T13:48:43.260Z,31.98
2018-02-06T13:51:10.781Z,26.95
2018-02-06T13:53:38.305Z,29.92
2018-02-06T13:56:05.852Z,30.02
2018-02-06T13:58:33.378Z,29.75
2018-02-06T14:01:01.141Z,26.98
2018-02-06T14:03:28.662Z,24.17
2018-02-06T14:05:56.210Z,30.55
2018-02-06T14:08:23.750Z,26.60
2018-02-06T14:10:51.273Z,24.48
2018-02-06T14:13:18.934Z,24.90
2018-02-06T14:15:46.461Z,29.33
2018-02-06T14:18:13.983Z,27.60
2018-02-06T14:20:41.531Z,23.80
2018-02-06T14:23:09.047Z,25.70
2018-02-06T14:25:37.059Z,28.52
2018-02-06T14:28:04.582Z,27.30
2018-02-06T14:30:32.111Z,20.58
2018-02-06T14:32:59.658Z,24.37
2018-02-06T14:35:27.194Z,28.52
2018-02-06T14:37:54.952Z,27.52
2018-02-06T14:40:22.482Z,23.83
2018-02-06T14:42:49.997Z,26.90
2018-02-06T14:45:17.550Z,23.77
2018-02-06T14:47:45.193Z,34.40
2018-02-06T14:50:12.934Z,25.58
2018-02-06T14:52:40.451Z,25.35
2018-02-06T14:55:07.984Z,20.80
2018-02-06T14:57:35.529Z,23.65
2018-02-06T15:00:03.047Z,23.62
2018-02-06T15:02:30.938Z,23.77
2018-02-06T15:04:58.516Z,25.33
2018-02-06T15:07:26.045Z,23.58
2018-02-06T15:09:53.590Z,25.45
2018-02-06T15:12:21.117Z,24.20
2018-02-06T15:14:48.973Z,23.48
2018-02-06T15:17:16.555Z,26.65
2018-02-06T15:19:44.087Z,24.95
2018-02-06T15:22:11.943Z,25.95
2018-02-06T15:24:39.599Z,24.25
2018-02-06T15:27:07.366Z,25.90
2018-02-06T15:29:34.913Z,29.27
2018-02-06T15:32:02.589Z,25.67
2018-02-06T15:34:30.170Z,31.52
2018-02-06T15:36:57.705Z,35.88
2018-02-06T15:39:25.286Z,30.65
2018-02-06T15:41:52.805Z,29.52
2018-02-06T15:44:20.353Z,29.17
2018-02-06T15:46:48.113Z,25.60
2018-02-06T15:49:15.634Z,26.48
2018-02-06T15:51:43.193Z,27.83
2018-02-06T15:54:11.127Z,27.20
2018-02-06T15:56:38.793Z,24.75
2018-02-06T15:59:06.630Z,27.13
2018-02-06T16:01:34.236Z,26.52
2018-02-06T16:04:02.169Z,24.65
2018-02-06T16:06:30.718Z,28.42
2018-02-06T16:08:58.373Z,27.73
2018-02-06T16:11:26.377Z,27.70
2018-02-06T16:13:53.918Z,25.05
2018-02-06T16:16:21.932Z,27.87
2018-02-06T16:18:49.697Z,25.92
2018-02-06T16:21:17.294Z,28.67
2018-02-06T16:23:45.334Z,25.70
2018-02-06T16:26:13.196Z,27.05
2018-02-06T16:28:41.674Z,25.08
2018-02-06T16:31:09.544Z,28.05
2018-02-06T16:33:37.133Z,27.75
2018-02-06T16:36:05.069Z,25.80
2018-02-06T16:38:32.990Z,22.75
2018-02-06T16:41:01.030Z,26.02
2018-02-06T16:43:28.873Z,27.10
2018-02-06T16:45:57.539Z,27.42
2018-02-06T16:48:25.527Z,26.17
2018-02-06T16:50:53.393Z,28.15
2018-02-06T16:53:21.874Z,27.50
2018-02-06T16:55:49.706Z,23.10
2018-02-06T16:58:17.997Z,24.80
2018-02-06T17:00:45.987Z,25.27
2018-02-06T17:03:13.854Z,27.95
2018-02-06T17:05:42.126Z,26.05
2018-02-06T17:08:09.995Z,27.83
2018-02-06T17:10:37.861Z,27.70
2018-02-06T17:13:06.140Z,26.42
2018-02-06T17:15:34.311Z,26.02
2018-02-06T17:18:02.279Z,27.50
2018-02-06T17:20:30.123Z,26.50
2018-02-06T17:22:58.018Z,26.40
2018-02-06T17:25:26.084Z,23.48
2018-02-06T17:27:53.950Z,23.75
2018-02-06T17:30:22.022Z,26.10
2018-02-06T17:32:49.857Z,24.35
2018-02-06T17:35:17.755Z,23.27
2018-02-06T17:37:45.628Z,23.80
2018-02-06T17:40:13.692Z,25.00
2018-02-06T17:42:41.451Z,25.65
2018-02-06T17:45:09.038Z,26.23
2018-02-06T17:47:36.574Z,24.85
2018-02-06T17:50:04.395Z,25.12
2018-02-06T17:52:32.206Z,26.60
2018-02-06T17:55:00.070Z,25.65
2018-02-06T17:57:28.450Z,28.42
2018-02-06T17:59:56.228Z,29.30
2018-02-06T18:02:24.153Z,27.30
2018-02-06T18:04:52.055Z,29.35
2018-02-06T18:07:20.020Z,29.15
2018-02-06T18:09:47.855Z,27.90
2018-02-06T18:12:15.650Z,26.27
2018-02-06T18:14:44.846Z,27.77
2018-02-06T18:17:13.226Z,25.37
2018-02-06T18:19:41.399Z,26.60
2018-02-06T18:22:09.372Z,25.65
2018-02-06T18:24:37.258Z,26.85
2018-02-06T18:27:05.168Z,26.87
2018-02-06T18:29:33.035Z,27.25
2018-02-06T18:32:01.146Z,28.70
2018-02-06T18:34:29.211Z,25.45
2018-02-06T18:36:57.410Z,26.17
2018-02-06T18:39:25.354Z,27.10
2018-02-06T18:41:53.325Z,28.35
2018-02-06T18:44:21.498Z,29.55
2018-02-06T18:46:49.365Z,27.75
2018-02-06T18:49:17.194Z,29.83
2018-02-06T18:51:45.061Z,26.92
2018-02-06T18:54:12.963Z,30.42
2018-02-06T18:56:41.159Z,29.63
2018-02-06T18:59:09.145Z,30.40
2018-02-06T19:01:37.075Z,27.30
2018-02-06T19:04:05.018Z,27.85
2018-02-06T19:06:32.886Z,29.00
2018-02-06T19:09:01.493Z,29.90
2018-02-06T19:11:30.538Z,28.95
2018-02-06T19:13:59.333Z,29.08
2018-02-06T19:16:28.369Z,27.98
2018-02-06T19:18:56.338Z,30.83
2018-02-06T19:21:24.818Z,29.05
2018-02-06T19:23:52.788Z,32.08
2018-02-06T19:26:21.248Z,35.53
2018-02-06T19:28:49.238Z,31.52
2018-02-06T19:31:17.520Z,28.50
2018-02-06T19:33:45.400Z,27.42
2018-02-06T19:36:13.356Z,28.02
2018-02-06T19:38:41.216Z,27.23
2018-02-06T19:41:09.186Z,29.05
2018-02-06T19:43:37.153Z,30.95
2018-02-06T19:46:05.175Z,26.08
2018-02-06T19:48:33.193Z,28.27
2018-02-06T19:51:01.059Z,28.65
2018-02-06T19:53:30.360Z,28.67
2018-02-06T19:55:58.329Z,26.70
2018-02-06T19:58:26.624Z,28.48
2018-02-06T20:00:54.473Z,28.00
2018-02-06T20:03:22.339Z,29.63
2018-02-06T20:05:50.409Z,27.40
2018-02-06T20:08:18.789Z,30.30
2018-02-06T20:10:46.962Z,27.65
2018-02-06T20:13:14.828Z,30.05
2018-02-06T20:15:42.898Z,30.75
2018-02-06T20:18:11.901Z,30.37
2018-02-06T20:20:40.476Z,29.87
2018-02-06T20:23:08.444Z,32.03
2018-02-06T20:25:37.017Z,30.98
2018-02-06T20:28:05.940Z,30.35
2018-02-06T20:30:33.886Z,29.27
2018-02-06T20:33:01.754Z,29.80
2018-02-06T20:35:30.234Z,26.25
2018-02-06T20:37:58.073Z,30.02
2018-02-06T20:40:25.967Z,26.95
2018-02-06T20:42:55.163Z,29.95
2018-02-06T20:45:23.031Z,29.50
2018-02-06T20:47:52.230Z,28.25
2018-02-06T20:50:20.200Z,29.65
2018-02-06T20:52:48.474Z,30.10
2018-02-06T20:55:16.443Z,28.98
2018-02-06T20:57:44.924Z,32.58
2018-02-06T21:00:13.616Z,31.60
2018-02-06T21:02:41.641Z,32.42
2018-02-06T21:05:12.927Z,29.95
2018-02-06T21:07:40.895Z,29.58
2018-02-06T21:10:09.339Z,31.98
2018-02-06T21:12:37.846Z,33.15
2018-02-06T21:15:05.734Z,32.33
2018-02-06T21:17:33.561Z,30.52
2018-02-06T21:20:01.471Z,31.60
2018-02-06T21:22:29.395Z,29.80
2018-02-06T21:24:57.701Z,32.25
2018-02-06T21:27:25.567Z,28.95
2018-02-06T21:29:53.436Z,31.62
2018-02-06T21:32:21.327Z,29.02
2018-02-06T21:34:49.270Z,29.00
2018-02-06T21:37:17.566Z,29.70
2018-02-06T21:39:46.230Z,31.60
2018-02-06T21:42:14.917Z,30.90
2018-02-06T21:44:42.845Z,27.27
2018-02-06T21:47:11.571Z,29.87
2018-02-06T21:49:40.052Z,29.40
2018-02-06T21:52:07.919Z,32.63
2018-02-06T21:54:35.801Z,30.02
2018-02-06T21:57:04.265Z,30.02
2018-02-06T21:59:32.095Z,28.77
2018-02-06T22:02:00.327Z,30.15
2018-02-06T22:04:28.173Z,29.45
2018-02-06T22:06:56.039Z,29.85
2018-02-06T22:09:24.078Z,31.33
2018-02-06T22:11:52.082Z,29.63
2018-02-06T22:14:20.020Z,31.75
2018-02-06T22:16:47.984Z,32.88
2018-02-06T22:19:16.817Z,31.83
2018-02-06T22:21:45.288Z,31.70
2018-02-06T22:24:13.154Z,30.42
2018-02-06T22:26:41.536Z,30.05
2018-02-06T22:29:09.500Z,33.78
2018-02-06T22:31:37.778Z,29.52
2018-02-06T22:34:05.957Z,32.88
2018-02-06T22:36:33.919Z,30.85
2018-02-06T22:39:02.093Z,31.85
2018-02-06T22:41:29.961Z,34.33
2018-02-06T22:43:59.716Z,34.63
2018-02-06T22:46:29.587Z,36.90
2018-02-06T22:48:57.449Z,33.35
2018-02-06T22:51:25.247Z,37.13
2018-02-06T22:53:53.898Z,28.45
2018-02-06T22:56:21.766Z,30.75
2018-02-06T22:58:49.633Z,29.40
2018-02-06T23:01:17.369Z,30.05
2018-02-06T23:03:45.420Z,30.50
2018-02-06T23:06:13.232Z,27.65
2018-02-06T23:08:40.977Z,29.48
2018-02-06T23:11:08.627Z,30.60
2018-02-06T23:13:36.663Z,28.87
2018-02-06T23:16:04.495Z,32.67
2018-02-06T23:18:32.247Z,27.85
2018-02-06T23:20:59.815Z,30.83
2018-02-06T23:23:27.477Z,29.15
2018-02-06T23:25:55.043Z,29.75
2018-02-06T23:28:23.068Z,28.85
2018-02-06T23:30:50.641Z,32.03
2018-02-06T23:33:18.181Z,30.25
2018-02-06T23:35:45.888Z,29.98
2018-02-06T23:38:13.427Z,30.45
2018-02-06T23:40:41.246Z,32.08
2018-02-06T23:43:08.832Z,30.02
2018-02-06T23:45:36.370Z,31.40
2018-02-06T23:48:04.209Z,29.17
2018-02-06T23:50:31.872Z,31.30
2018-02-06T23:53:00.024Z,31.20
2018-02-06T23:55:27.546Z,29.08
2018-02-06T23:57:55.073Z,29.95
